Regal Star — ESCM — position and weather

sailwx.info

Track history (hours):
 
Tides and Currents Weather Stations Pressure Air Temp Water Temp Dewpoint Dewpoint Depression Visibility Wind Speed Wind Dir Waves Ship Positions

Regal Star

Last reported at 2017-Jul-25 04:30 UTC. Time now 2017-Jul-25 04:41 UTC.
Position N 59°23' E 023°45'.

Length 157 m; draft 6 m.

Type: Passenger vessel. MMSI: 276554000.

Date/timePositionNaut miles runAvg speedWind from/ knotsBaromVisibWave heightAir tempDewpointWater temp
2017-Jul-25 04:30N 59°23' E 023°45'815.6
2017-Jul-25 04:00N 59°23' E 023°29'815.5
2017-Jul-25 03:30N 59°23' E 023°14'611.1
2017-Jul-25 03:00N 59°23' E 023°03'510.0
2017-Jul-25 02:30N 59°23' E 022°53'815.9
2017-Jul-25 02:01N 59°22' E 022°38'714.9
2017-Jul-25 01:31N 59°22' E 022°23'815.1
2017-Jul-25 01:01N 59°26' E 022°10'815.8
2017-Jul-25 00:30N 59°28' E 021°55'815.7
2017-Jul-25 00:00N 59°31' E 021°40'815.7
2017-Jul-24 23:31N 59°33' E 021°26'815.6
2017-Jul-24 23:01N 59°35' E 021°11'815.6
2017-Jul-24 22:31N 59°37' E 020°56'815.7
2017-Jul-24 22:01N 59°39' E 020°41'815.4
2017-Jul-24 21:31N 59°43' E 020°28'815.5
2017-Jul-24 21:00N 59°45' E 020°13'917.6
2017-Jul-24 20:31N 59°45' E 019°55'713.7
2017-Jul-24 20:01N 59°45' E 019°41'816.1
2017-Jul-24 19:30N 59°46' E 019°26'714.5
2017-Jul-24 19:00N 59°44' E 019°12'4 8.1
2017-Jul-24 18:30N 59°43' E 019°04'0 0.0
2017-Jul-24 17:59N 59°43' E 019°04'0 0.0
2017-Jul-24 17:26N 59°43' E 019°04'0 0.0
2017-Jul-24 16:59N 59°43' E 019°04'0 0.0
2017-Jul-24 16:30N 59°43' E 019°04'0 0.0
2017-Jul-24 15:56N 59°43' E 019°04'0 0.0
2017-Jul-24 12:53N 59°43' E 019°04'0 0.0
2017-Jul-24 12:26N 59°43' E 019°04'0 0.0
2017-Jul-24 12:00N 59°43' E 019°04'0 0.0
2017-Jul-24 11:28N 59°43' E 019°04'0 0.0
2017-Jul-24 10:58N 59°43' E 019°04'0 0.0
2017-Jul-24 10:29N 59°43' E 019°04'0 0.0
2017-Jul-24 09:55N 59°43' E 019°04'0 0.0
2017-Jul-24 09:28N 59°43' E 019°04'0 0.0
2017-Jul-24 09:00N 59°43' E 019°04'0 0.0
2017-Jul-24 08:26N 59°43' E 019°04'0 0.0
2017-Jul-24 07:58N 59°43' E 019°04'0 0.0
2017-Jul-24 07:30N 59°43' E 019°04'0 0.0
2017-Jul-24 06:59N 59°43' E 019°04'0 0.0
2017-Jul-24 06:30N 59°43' E 019°04'0 0.0
2017-Jul-24 05:58N 59°43' E 019°04'0 0.0
2017-Jul-24 05:28N 59°43' E 019°04'0 0.0
2017-Jul-24 04:58N 59°43' E 019°04'0 0.0
2017-Jul-24 04:30N 59°43' E 019°04'3 5.6
2017-Jul-24 04:01N 59°44' E 019°09'816.1
2017-Jul-24 03:31N 59°46' E 019°25'815.3
2017-Jul-24 03:00N 59°44' E 019°39'815.7
2017-Jul-24 02:30N 59°42' E 019°54'510.9
2017-Jul-24 02:00N 59°39' E 020°03'611.6
2017-Jul-24 01:30N 59°36' E 020°13'815.2
2017-Jul-24 01:00N 59°35' E 020°28'816.1
2017-Jul-24 00:30N 59°33' E 020°43'714.6
2017-Jul-24 00:00N 59°31' E 020°57'815.5
2017-Jul-23 23:30N 59°29' E 021°12'816.9
2017-Jul-23 23:01N 59°27' E 021°28'714.3
2017-Jul-23 22:30N 59°26' E 021°42'917.5
2017-Jul-23 22:00N 59°24' E 021°59'816.1
2017-Jul-23 21:31N 59°22' E 022°14'815.7
2017-Jul-23 21:00N 59°20' E 022°29'815.6
2017-Jul-23 20:31N 59°20' E 022°44'714.1
2017-Jul-23 20:00N 59°21' E 022°58'815.2
2017-Jul-23 19:30N 59°21' E 023°13'815.2
2017-Jul-23 19:00N 59°22' E 023°28'815.6
2017-Jul-23 18:31N 59°22' E 023°43'815.6
2017-Jul-23 18:01N 59°22' E 023°59'4 7.6
2017-Jul-23 17:30N 59°20' E 024°05'0 0.0
2017-Jul-23 16:55N 59°20' E 024°05'0 0.0
2017-Jul-23 16:29N 59°20' E 024°05'0 0.0
2017-Jul-23 16:00N 59°20' E 024°05'0 0.0
2017-Jul-23 15:30N 59°20' E 024°05'1 1.8
2017-Jul-23 15:00N 59°20' E 024°03'816.6
2017-Jul-23 14:30N 59°23' E 023°48'815.1
2017-Jul-23 14:00N 59°23' E 023°33'815.4
2017-Jul-23 13:30N 59°23' E 023°18'714.6
2017-Jul-23 13:00N 59°23' E 023°04'815.4
2017-Jul-23 12:31N 59°23' E 022°49'815.7
2017-Jul-23 12:00N 59°23' E 022°33'815.7
2017-Jul-23 11:30N 59°25' E 022°18'815.8
2017-Jul-23 11:00N 59°27' E 022°03'815.8
2017-Jul-23 10:30N 59°29' E 021°48'815.7
2017-Jul-23 10:00N 59°32' E 021°34'815.8
2017-Jul-23 09:30N 59°34' E 021°19'815.6
2017-Jul-23 09:00N 59°36' E 021°04'815.6
2017-Jul-23 08:30N 59°38' E 020°49'815.5
2017-Jul-23 08:00N 59°41' E 020°34'815.2
2017-Jul-23 07:30N 59°44' E 020°21'815.5
2017-Jul-23 07:00N 59°45' E 020°06'815.6
2017-Jul-23 06:30N 59°45' E 019°50'815.8
2017-Jul-23 06:01N 59°45' E 019°35'815.2
2017-Jul-23 05:30N 59°45' E 019°20'714.6
2017-Jul-23 05:00N 59°43' E 019°06'1 1.7
2017-Jul-23 04:30N 59°43' E 019°04'2 4.6
2017-Jul-23 04:00N 59°44' E 019°08'815.8
2017-Jul-23 03:30N 59°46' E 019°23'816.0
2017-Jul-23 03:00N 59°45' E 019°39'815.2
2017-Jul-23 02:30N 59°42' E 019°53'611.2
2017-Jul-23 02:01N 59°39' E 020°02'5 9.5
2017-Jul-23 01:30N 59°37' E 020°11'815.4
2017-Jul-23 01:01N 59°35' E 020°26'815.6
2017-Jul-23 00:30N 59°33' E 020°40'815.6
2017-Jul-23 00:00N 59°31' E 020°56'815.7
2017-Jul-22 23:30N 59°30' E 021°11'815.6
2017-Jul-22 23:00N 59°28' E 021°25'815.5
2017-Jul-22 22:30N 59°26' E 021°40'815.5
2017-Jul-22 22:00N 59°24' E 021°55'815.5
2017-Jul-22 21:30N 59°23' E 022°10'816.5
2017-Jul-22 21:00N 59°20' E 022°26'815.4
2017-Jul-22 20:31N 59°20' E 022°41'815.2
2017-Jul-22 20:00N 59°21' E 022°55'816.4
2017-Jul-22 19:30N 59°21' E 023°12'613.1
2017-Jul-22 19:01N 59°22' E 023°24'815.4
2017-Jul-22 18:30N 59°22' E 023°40'815.5
2017-Jul-22 18:01N 59°23' E 023°55'611.6
2017-Jul-22 17:30N 59°20' E 024°05'0 0.1
2017-Jul-22 17:00N 59°20' E 024°05'0 0.0
2017-Jul-22 16:30N 59°20' E 024°05'0 0.0
2017-Jul-22 16:00N 59°20' E 024°05'0 0.0
2017-Jul-22 15:30N 59°20' E 024°05'0 0.0
2017-Jul-22 15:00N 59°20' E 024°05'0 0.0
2017-Jul-22 14:00N 59°20' E 024°05'0 0.0
2017-Jul-22 13:30N 59°20' E 024°05'0 0.0
2017-Jul-22 13:00N 59°20' E 024°05'0 0.0
2017-Jul-22 12:30N 59°20' E 024°05'0 0.0
2017-Jul-22 12:00N 59°20' E 024°05'0 0.0
2017-Jul-22 11:30N 59°20' E 024°05'0 0.0
2017-Jul-22 10:57N 59°20' E 024°05'0 0.0
2017-Jul-22 10:30N 59°20' E 024°05'0 0.0
2017-Jul-22 10:00N 59°20' E 024°05'0 0.0
2017-Jul-22 09:30N 59°20' E 024°05'0 0.0
2017-Jul-22 09:00N 59°20' E 024°05'0 0.0
2017-Jul-22 08:30N 59°20' E 024°05'0 0.0
2017-Jul-22 08:00N 59°20' E 024°05'0 0.0
2017-Jul-22 07:30N 59°20' E 024°05'0 0.0
2017-Jul-22 07:00N 59°20' E 024°05'0 0.0
2017-Jul-22 06:30N 59°20' E 024°05'0 0.0
2017-Jul-22 05:57N 59°20' E 024°05'0 0.0
2017-Jul-22 05:31N 59°20' E 024°05'3 5.4
2017-Jul-22 05:01N 59°21' E 024°00'815.2
2017-Jul-22 04:30N 59°23' E 023°46'816.0
2017-Jul-22 04:00N 59°23' E 023°30'816.0
2017-Jul-22 03:30N 59°23' E 023°14'612.7
2017-Jul-22 03:00N 59°23' E 023°02'510.5
2017-Jul-22 02:30N 59°23' E 022°51'815.9
2017-Jul-22 02:00N 59°23' E 022°36'815.6
2017-Jul-22 01:31N 59°24' E 022°21'815.6
2017-Jul-22 01:00N 59°27' E 022°06'815.6
2017-Jul-22 00:30N 59°29' E 021°51'815.7
2017-Jul-22 00:00N 59°31' E 021°37'815.7
2017-Jul-21 23:31N 59°33' E 021°22'815.8
2017-Jul-21 23:00N 59°36' E 021°07'815.8
2017-Jul-21 22:30N 59°38' E 020°52'815.8
2017-Jul-21 22:00N 59°40' E 020°37'815.3
2017-Jul-21 21:30N 59°44' E 020°24'815.4
2017-Jul-21 21:00N 59°45' E 020°09'815.7
2017-Jul-21 20:30N 59°44' E 019°53'816.2
2017-Jul-21 20:00N 59°45' E 019°37'815.9
2017-Jul-21 19:30N 59°46' E 019°21'815.4
2017-Jul-21 19:00N 59°43' E 019°07'1 2.5
2017-Jul-21 18:29N 59°43' E 019°04'0 0.0
2017-Jul-21 17:59N 59°43' E 019°04'0 0.0
2017-Jul-21 17:29N 59°43' E 019°04'0 0.0
2017-Jul-21 16:59N 59°43' E 019°04'0 0.0
2017-Jul-21 16:29N 59°43' E 019°04'0 0.0
2017-Jul-21 15:59N 59°43' E 019°04'0 0.0
2017-Jul-21 15:29N 59°43' E 019°04'0 0.0
2017-Jul-21 14:59N 59°43' E 019°04'0 0.0
2017-Jul-21 14:29N 59°43' E 019°04'0 0.0
2017-Jul-21 13:59N 59°43' E 019°04'0 0.0
2017-Jul-21 13:29N 59°43' E 019°04'0 0.0
2017-Jul-21 12:59N 59°43' E 019°04'0 0.0
2017-Jul-21 12:29N 59°43' E 019°04'0 0.0
2017-Jul-21 11:59N 59°43' E 019°04'0 0.0
2017-Jul-21 11:29N 59°43' E 019°04'0 0.0
2017-Jul-21 10:59N 59°43' E 019°04'0 0.0
2017-Jul-21 10:29N 59°43' E 019°04'0 0.0
2017-Jul-21 09:59N 59°43' E 019°04'0 0.0
2017-Jul-21 09:29N 59°43' E 019°04'0 0.0
2017-Jul-21 08:59N 59°43' E 019°04'0 0.0
2017-Jul-21 08:29N 59°43' E 019°04'0 0.0
2017-Jul-21 07:59N 59°43' E 019°04'0 0.0
2017-Jul-21 07:29N 59°43' E 019°04'0 0.0
2017-Jul-21 06:59N 59°43' E 019°04'0 0.0
2017-Jul-21 06:29N 59°43' E 019°04'0 0.0
2017-Jul-21 05:59N 59°43' E 019°04'0 0.0
2017-Jul-21 05:29N 59°43' E 019°04'0 0.0
2017-Jul-21 04:59N 59°43' E 019°04'0 0.0
2017-Jul-21 04:31N 59°43' E 019°04'3 5.4
2017-Jul-21 04:00N 59°44' E 019°09'815.9
2017-Jul-21 03:30N 59°46' E 019°24'815.8
2017-Jul-21 03:00N 59°45' E 019°40'815.2
2017-Jul-21 02:30N 59°42' E 019°54'510.3
2017-Jul-21 02:00N 59°39' E 020°02'5 9.4
2017-Jul-21 01:30N 59°37' E 020°10'714.7
2017-Jul-21 01:00N 59°35' E 020°24'815.8
2017-Jul-21 00:30N 59°33' E 020°40'815.7
2017-Jul-21 00:00N 59°31' E 020°55'815.8
2017-Jul-20 23:30N 59°30' E 021°10'815.7
2017-Jul-20 23:00N 59°28' E 021°25'815.7
2017-Jul-20 22:31N 59°26' E 021°40'815.8
2017-Jul-20 22:00N 59°24' E 021°55'815.7
2017-Jul-20 21:30N 59°22' E 022°10'917.4
2017-Jul-20 21:00N 59°20' E 022°27'918.0
2017-Jul-20 20:30N 59°20' E 022°44'612.4
2017-Jul-20 20:00N 59°21' E 022°57'815.9
2017-Jul-20 19:30N 59°21' E 023°12'713.7
2017-Jul-20 19:00N 59°22' E 023°25'815.2
2017-Jul-20 18:30N 59°22' E 023°40'815.2
2017-Jul-20 18:00N 59°23' E 023°55'611.0
2017-Jul-20 17:30N 59°20' E 024°05'0 0.0
2017-Jul-20 16:58N 59°20' E 024°05'0 0.0
2017-Jul-20 16:29N 59°20' E 024°05'0 0.0
2017-Jul-20 15:58N 59°20' E 024°05'0 0.0
2017-Jul-20 15:28N 59°20' E 024°05'0 0.0
2017-Jul-20 14:55N 59°20' E 024°05'0 0.0
2017-Jul-20 13:58N 59°20' E 024°05'0 0.0
2017-Jul-20 13:28N 59°20' E 024°05'0 0.0
2017-Jul-20 12:58N 59°20' E 024°05'0 0.0
2017-Jul-20 12:28N 59°20' E 024°05'0 0.0
2017-Jul-20 11:58N 59°20' E 024°05'0 0.0
2017-Jul-20 11:28N 59°20' E 024°05'0 0.0
2017-Jul-20 10:58N 59°20' E 024°05'0 0.0
2017-Jul-20 10:28N 59°20' E 024°05'0 0.0
2017-Jul-20 09:58N 59°20' E 024°05'0 0.0
2017-Jul-20 09:11N 59°20' E 024°05'0 0.0
2017-Jul-20 08:53N 59°20' E 024°05'0 0.0
2017-Jul-20 06:13N 59°20' E 024°05'0 0.0
2017-Jul-20 05:49N 59°20' E 024°05'0 0.1
2017-Jul-20 05:30N 59°20' E 024°05'4 8.0
2017-Jul-20 05:00N 59°22' E 023°58'816.0
2017-Jul-20 04:30N 59°23' E 023°43'816.1
2017-Jul-20 04:00N 59°23' E 023°27'815.9
2017-Jul-20 03:30N 59°23' E 023°11'511.0
2017-Jul-20 03:00N 59°23' E 023°00'713.9
2017-Jul-20 02:31N 59°23' E 022°47'815.9
2017-Jul-20 02:00N 59°23' E 022°31'815.5
2017-Jul-20 01:30N 59°25' E 022°16'815.7
2017-Jul-20 01:00N 59°27' E 022°01'815.7
2017-Jul-20 00:31N 59°30' E 021°47'815.7
2017-Jul-20 00:00N 59°32' E 021°32'815.7
2017-Jul-19 23:31N 59°34' E 021°17'815.8
2017-Jul-19 23:01N 59°36' E 021°02'815.8
2017-Jul-19 22:31N 59°38' E 020°47'815.8
2017-Jul-19 22:01N 59°41' E 020°32'815.4
2017-Jul-19 21:31N 59°45' E 020°19'815.9
2017-Jul-19 21:01N 59°45' E 020°03'816.3
2017-Jul-19 20:30N 59°45' E 019°47'816.3
2017-Jul-19 20:00N 59°46' E 019°31'816.4
2017-Jul-19 19:31N 59°45' E 019°15'611.1
2017-Jul-19 19:01N 59°43' E 019°04'0 0.0
2017-Jul-19 18:30N 59°43' E 019°04'0 0.0
2017-Jul-19 18:00N 59°43' E 019°04'0 0.0
2017-Jul-19 17:30N 59°43' E 019°04'0 0.0
2017-Jul-19 17:00N 59°43' E 019°04'0 0.0
2017-Jul-19 16:30N 59°43' E 019°04'0 0.0
2017-Jul-19 16:00N 59°43' E 019°04'0 0.0
2017-Jul-19 15:30N 59°43' E 019°04'0 0.0
2017-Jul-19 15:00N 59°43' E 019°04'0 0.0
2017-Jul-19 14:30N 59°43' E 019°04'0 0.0
2017-Jul-19 14:00N 59°43' E 019°04'0 0.0
2017-Jul-19 13:30N 59°43' E 019°04'0 0.0
2017-Jul-19 13:00N 59°43' E 019°04'0 0.0
2017-Jul-19 12:30N 59°43' E 019°04'0 0.0
2017-Jul-19 12:00N 59°43' E 019°04'0 0.0
2017-Jul-19 11:30N 59°43' E 019°04'0 0.0
2017-Jul-19 11:00N 59°43' E 019°04'0 0.0
2017-Jul-19 10:30N 59°43' E 019°04'0 0.0
2017-Jul-19 10:00N 59°43' E 019°04'0 0.0
2017-Jul-19 09:30N 59°43' E 019°04'0 0.0
2017-Jul-19 09:00N 59°43' E 019°04'0 0.0
2017-Jul-19 08:30N 59°43' E 019°04'0 0.0
2017-Jul-19 08:00N 59°43' E 019°04'0 0.0
2017-Jul-19 07:30N 59°43' E 019°04'0 0.0
2017-Jul-19 07:00N 59°43' E 019°04'0 0.0
2017-Jul-19 06:30N 59°43' E 019°04'0 0.0
2017-Jul-19 06:00N 59°43' E 019°04'0 0.0
2017-Jul-19 05:30N 59°43' E 019°04'0 0.0
2017-Jul-19 05:00N 59°43' E 019°04'0 0.0
2017-Jul-19 04:31N 59°43' E 019°04'2 4.8
2017-Jul-19 04:00N 59°44' E 019°09'815.3
2017-Jul-19 03:30N 59°46' E 019°23'714.7
2017-Jul-19 03:00N 59°45' E 019°37'815.0
2017-Jul-19 02:30N 59°42' E 019°52'815.2
2017-Jul-19 02:00N 59°38' E 020°04'815.2
2017-Jul-19 01:31N 59°36' E 020°18'815.0
2017-Jul-19 01:00N 59°34' E 020°33'715.0
2017-Jul-19 00:31N 59°32' E 020°47'714.9
2017-Jul-19 00:00N 59°31' E 021°01'815.1
2017-Jul-18 23:31N 59°29' E 021°16'815.1
2017-Jul-18 23:00N 59°27' E 021°30'815.2
2017-Jul-18 22:30N 59°25' E 021°45'815.2
2017-Jul-18 22:01N 59°24' E 021°59'815.1
2017-Jul-18 21:30N 59°22' E 022°14'815.1
2017-Jul-18 21:01N 59°20' E 022°28'815.8
2017-Jul-18 20:31N 59°20' E 022°44'714.6
2017-Jul-18 20:00N 59°21' E 022°58'816.4
2017-Jul-18 19:30N 59°21' E 023°14'713.8
2017-Jul-18 19:00N 59°22' E 023°28'714.9
2017-Jul-18 18:31N 59°22' E 023°42'714.6
2017-Jul-18 18:00N 59°23' E 023°57'510.1
2017-Jul-18 17:30N 59°20' E 024°05'0 0.0
2017-Jul-18 16:59N 59°20' E 024°05'0 0.0
2017-Jul-18 16:29N 59°20' E 024°05'0 0.0
2017-Jul-18 15:59N 59°20' E 024°05'0 0.0
2017-Jul-18 15:29N 59°20' E 024°05'0 0.0
2017-Jul-18 14:59N 59°20' E 024°05'0 0.0
2017-Jul-18 13:59N 59°20' E 024°05'0 0.0
2017-Jul-18 13:29N 59°20' E 024°05'0 0.0
2017-Jul-18 12:59N 59°20' E 024°05'0 0.0
2017-Jul-18 12:29N 59°20' E 024°05'0 0.0
2017-Jul-18 11:59N 59°20' E 024°05'0 0.0
2017-Jul-18 11:29N 59°20' E 024°05'0 0.0
2017-Jul-18 10:59N 59°20' E 024°05'0 0.0
2017-Jul-18 10:29N 59°20' E 024°05'0 0.0
2017-Jul-18 09:59N 59°20' E 024°05'0 0.0
2017-Jul-18 09:29N 59°20' E 024°05'0 0.0
2017-Jul-18 08:59N 59°20' E 024°05'0 0.0
2017-Jul-18 08:29N 59°20' E 024°05'0 0.0
2017-Jul-18 07:59N 59°20' E 024°05'0 0.0
2017-Jul-18 07:26N 59°20' E 024°05'0 0.0
2017-Jul-18 06:56N 59°20' E 024°05'0 0.0
2017-Jul-18 06:29N 59°20' E 024°05'0 0.0
2017-Jul-18 05:59N 59°20' E 024°05'0 0.0
2017-Jul-18 05:30N 59°20' E 024°05'3 5.4
2017-Jul-18 05:00N 59°21' E 024°01'713.4
2017-Jul-18 04:30N 59°23' E 023°48'714.8
2017-Jul-18 04:00N 59°23' E 023°33'815.0
2017-Jul-18 03:31N 59°23' E 023°19'815.0
2017-Jul-18 03:00N 59°23' E 023°04'815.4
2017-Jul-18 02:30N 59°23' E 022°49'815.4
2017-Jul-18 02:00N 59°23' E 022°34'815.0
2017-Jul-18 01:30N 59°25' E 022°19'714.3
2017-Jul-18 01:00N 59°27' E 022°06'714.5
2017-Jul-18 00:30N 59°29' E 021°52'714.5
2017-Jul-18 00:01N 59°31' E 021°38'714.6
2017-Jul-17 23:31N 59°33' E 021°24'714.7
2017-Jul-17 23:00N 59°35' E 021°10'714.7
2017-Jul-17 22:30N 59°37' E 020°57'714.8
2017-Jul-17 22:00N 59°39' E 020°43'714.2
2017-Jul-17 21:30N 59°42' E 020°30'714.5
2017-Jul-17 21:01N 59°45' E 020°16'816.6
2017-Jul-17 20:31N 59°45' E 019°60'816.1
2017-Jul-17 20:00N 59°45' E 019°44'815.3
2017-Jul-17 19:30N 59°46' E 019°29'815.6
2017-Jul-17 19:01N 59°44' E 019°13'5 9.0
2017-Jul-17 18:28N 59°43' E 019°04'0 0.0
2017-Jul-17 17:58N 59°43' E 019°04'0 0.0
2017-Jul-17 17:28N 59°43' E 019°04'0 0.0
2017-Jul-17 16:58N 59°43' E 019°04'0 0.0
2017-Jul-17 16:28N 59°43' E 019°04'0 0.0
2017-Jul-17 15:58N 59°43' E 019°04'0 0.0
2017-Jul-17 15:28N 59°43' E 019°04'0 0.0
2017-Jul-17 14:58N 59°43' E 019°04'0 0.0
2017-Jul-17 14:28N 59°43' E 019°04'0 0.0
2017-Jul-17 13:58N 59°43' E 019°04'0 0.0
2017-Jul-17 13:22N 59°43' E 019°04'0 0.0
2017-Jul-17 12:58N 59°43' E 019°04'0 0.0
2017-Jul-17 12:28N 59°43' E 019°04'0 0.0
2017-Jul-17 11:58N 59°43' E 019°04'0 0.0
2017-Jul-17 11:28N 59°43' E 019°04'0 0.0
2017-Jul-17 10:58N 59°43' E 019°04'0 0.0
2017-Jul-17 10:28N 59°43' E 019°04'0 0.0
2017-Jul-17 09:58N 59°43' E 019°04'0 0.0
2017-Jul-17 09:28N 59°43' E 019°04'0 0.0
2017-Jul-17 08:58N 59°43' E 019°04'0 0.0
2017-Jul-17 08:28N 59°43' E 019°04'0 0.0
2017-Jul-17 07:58N 59°43' E 019°04'0 0.0
2017-Jul-17 07:28N 59°43' E 019°04'0 0.0
2017-Jul-17 06:58N 59°43' E 019°04'0 0.0
2017-Jul-17 06:28N 59°43' E 019°04'0 0.0
2017-Jul-17 05:58N 59°43' E 019°04'0 0.0
2017-Jul-17 05:28N 59°43' E 019°04'0 0.0
2017-Jul-17 04:58N 59°43' E 019°04'0 0.0
2017-Jul-17 04:28N 59°43' E 019°04'2 3.6
2017-Jul-17 04:01N 59°43' E 019°07'713.9
2017-Jul-17 03:31N 59°46' E 019°20'713.8
2017-Jul-17 03:01N 59°47' E 019°34'714.0
2017-Jul-17 02:31N 59°47' E 019°48'714.1
2017-Jul-17 02:01N 59°46' E 020°02'714.3
2017-Jul-17 01:31N 59°46' E 020°16'714.3
2017-Jul-17 01:01N 59°43' E 020°29'714.5
2017-Jul-17 00:30N 59°40' E 020°42'815.2
2017-Jul-17 00:00N 59°39' E 020°57'815.5
2017-Jul-16 23:31N 59°38' E 021°12'815.4
2017-Jul-16 23:00N 59°36' E 021°27'815.5
2017-Jul-16 22:30N 59°35' E 021°42'815.3
2017-Jul-16 22:00N 59°34' E 021°57'815.2
2017-Jul-16 21:31N 59°33' E 022°12'816.2
2017-Jul-16 21:00N 59°32' E 022°28'917.4
2017-Jul-16 20:30N 59°31' E 022°45'714.9
2017-Jul-16 20:00N 59°30' E 022°59'714.3
2017-Jul-16 19:30N 59°28' E 023°13'815.8
2017-Jul-16 19:01N 59°26' E 023°28'815.6
2017-Jul-16 18:31N 59°24' E 023°43'815.8
2017-Jul-16 18:01N 59°23' E 023°58'4 8.9
2017-Jul-16 17:30N 59°20' E 024°05'0 0.0
2017-Jul-16 16:59N 59°20' E 024°05'0 0.0
2017-Jul-16 16:29N 59°20' E 024°05'0 0.0
2017-Jul-16 15:59N 59°20' E 024°05'0 0.0
2017-Jul-16 15:30N 59°20' E 024°05'2 4.3
2017-Jul-16 15:00N 59°21' E 024°01'611.3
2017-Jul-16 14:31N 59°23' E 023°51'816.0
2017-Jul-16 14:01N 59°23' E 023°35'816.1
2017-Jul-16 13:31N 59°23' E 023°19'816.1
2017-Jul-16 13:01N 59°23' E 023°04'816.2
2017-Jul-16 12:31N 59°24' E 022°48'816.0
2017-Jul-16 12:01N 59°24' E 022°32'815.7
2017-Jul-16 11:31N 59°25' E 022°17'917.9
2017-Jul-16 11:00N 59°27' E 022°00'713.8
2017-Jul-16 10:31N 59°30' E 021°47'815.9
2017-Jul-16 10:01N 59°32' E 021°32'815.8
2017-Jul-16 09:31N 59°34' E 021°17'815.9
2017-Jul-16 09:01N 59°36' E 021°02'816.2
2017-Jul-16 08:30N 59°39' E 020°47'918.0
2017-Jul-16 08:00N 59°42' E 020°30'815.4
2017-Jul-16 07:31N 59°45' E 020°16'816.0
2017-Jul-16 07:00N 59°45' E 020°00'815.4
2017-Jul-16 06:30N 59°44' E 019°45'816.1
2017-Jul-16 06:00N 59°46' E 019°29'816.2
2017-Jul-16 05:30N 59°44' E 019°13'5 9.2
2017-Jul-16 04:59N 59°43' E 019°04'0 0.0
2017-Jul-16 04:30N 59°43' E 019°04'3 7.0
2017-Jul-16 04:00N 59°44' E 019°11'713.9
2017-Jul-16 03:30N 59°46' E 019°24'611.9
2017-Jul-16 03:00N 59°45' E 019°36'713.8
2017-Jul-16 02:31N 59°43' E 019°49'816.2
2017-Jul-16 02:00N 59°39' E 020°02'714.0
2017-Jul-16 01:30N 59°36' E 020°15'713.8
2017-Jul-16 01:00N 59°35' E 020°28'816.9
2017-Jul-16 00:30N 59°33' E 020°45'815.0
2017-Jul-16 00:00N 59°31' E 020°59'714.7
2017-Jul-15 23:31N 59°29' E 021°13'714.9
2017-Jul-15 23:00N 59°28' E 021°27'815.6
2017-Jul-15 22:31N 59°26' E 021°42'815.7
2017-Jul-15 22:01N 59°24' E 021°57'815.1
2017-Jul-15 21:30N 59°22' E 022°12'918.0
2017-Jul-15 21:00N 59°21' E 022°29'713.0
2017-Jul-15 20:31N 59°20' E 022°42'815.3
2017-Jul-15 20:00N 59°21' E 022°57'815.6
2017-Jul-15 19:30N 59°21' E 023°12'815.5
2017-Jul-15 19:00N 59°22' E 023°27'815.5
2017-Jul-15 18:31N 59°22' E 023°42'815.4
2017-Jul-15 18:01N 59°22' E 023°57'5 9.0
2017-Jul-15 17:30N 59°20' E 024°05'0 0.0
2017-Jul-15 17:00N 59°20' E 024°05'0 0.0
2017-Jul-15 16:30N 59°20' E 024°05'0 0.0
2017-Jul-15 16:00N 59°20' E 024°05'0 0.0
2017-Jul-15 15:30N 59°20' E 024°05'0 0.0
2017-Jul-15 15:00N 59°20' E 024°05'0 0.0
2017-Jul-15 14:00N 59°20' E 024°05'0 0.0
2017-Jul-15 13:30N 59°20' E 024°05'0 0.0
2017-Jul-15 13:00N 59°20' E 024°05'0 0.0
2017-Jul-15 12:30N 59°20' E 024°05'0 0.0
2017-Jul-15 12:00N 59°20' E 024°05'0 0.0
2017-Jul-15 11:30N 59°20' E 024°05'0 0.0
2017-Jul-15 11:00N 59°20' E 024°05'0 0.0
2017-Jul-15 10:30N 59°20' E 024°05'0 0.0
2017-Jul-15 10:00N 59°20' E 024°05'0 0.0
2017-Jul-15 09:30N 59°20' E 024°05'0 0.0
2017-Jul-15 09:00N 59°20' E 024°05'0 0.0
2017-Jul-15 08:30N 59°20' E 024°05'0 0.0
2017-Jul-15 07:54N 59°20' E 024°05'0 0.0
2017-Jul-15 07:27N 59°20' E 024°05'0 0.0
2017-Jul-15 07:00N 59°20' E 024°05'0 0.0
2017-Jul-15 06:30N 59°20' E 024°05'0 0.0
2017-Jul-15 05:57N 59°20' E 024°05'0 0.0
2017-Jul-15 05:30N 59°20' E 024°05'3 6.6
2017-Jul-15 05:00N 59°22' E 023°60'  
Track history (hours):
 
Tides and Currents Weather Stations Pressure Air Temp Water Temp Dewpoint Dewpoint Depression Visibility Wind Speed Wind Dir Waves Ship Positions

Regal Star

Last reported at 2017-Jul-25 04:30 UTC. Time now 2017-Jul-25 04:41 UTC.
Position N 59°23' E 023°45'.

Length 157 m; draft 6 m.

Type: Passenger vessel. MMSI: 276554000.

Date/timePositionNaut miles runAvg speedWind from/ knotsBaromVisibWave heightAir tempDewpointWater temp
2017-Jul-25 04:30N 59°23' E 023°45'815.6
2017-Jul-25 04:00N 59°23' E 023°29'815.5
2017-Jul-25 03:30N 59°23' E 023°14'611.1
2017-Jul-25 03:00N 59°23' E 023°03'510.0
2017-Jul-25 02:30N 59°23' E 022°53'815.9
2017-Jul-25 02:01N 59°22' E 022°38'714.9
2017-Jul-25 01:31N 59°22' E 022°23'815.1
2017-Jul-25 01:01N 59°26' E 022°10'815.8
2017-Jul-25 00:30N 59°28' E 021°55'815.7
2017-Jul-25 00:00N 59°31' E 021°40'815.7
2017-Jul-24 23:31N 59°33' E 021°26'815.6
2017-Jul-24 23:01N 59°35' E 021°11'815.6
2017-Jul-24 22:31N 59°37' E 020°56'815.7
2017-Jul-24 22:01N 59°39' E 020°41'815.4
2017-Jul-24 21:31N 59°43' E 020°28'815.5
2017-Jul-24 21:00N 59°45' E 020°13'917.6
2017-Jul-24 20:31N 59°45' E 019°55'713.7
2017-Jul-24 20:01N 59°45' E 019°41'816.1
2017-Jul-24 19:30N 59°46' E 019°26'714.5
2017-Jul-24 19:00N 59°44' E 019°12'4 8.1
2017-Jul-24 18:30N 59°43' E 019°04'0 0.0
2017-Jul-24 17:59N 59°43' E 019°04'0 0.0
2017-Jul-24 17:26N 59°43' E 019°04'0 0.0
2017-Jul-24 16:59N 59°43' E 019°04'0 0.0
2017-Jul-24 16:30N 59°43' E 019°04'0 0.0
2017-Jul-24 15:56N 59°43' E 019°04'0 0.0
2017-Jul-24 12:53N 59°43' E 019°04'0 0.0
2017-Jul-24 12:26N 59°43' E 019°04'0 0.0
2017-Jul-24 12:00N 59°43' E 019°04'0 0.0
2017-Jul-24 11:28N 59°43' E 019°04'0 0.0
2017-Jul-24 10:58N 59°43' E 019°04'0 0.0
2017-Jul-24 10:29N 59°43' E 019°04'0 0.0
2017-Jul-24 09:55N 59°43' E 019°04'0 0.0
2017-Jul-24 09:28N 59°43' E 019°04'0 0.0
2017-Jul-24 09:00N 59°43' E 019°04'0 0.0
2017-Jul-24 08:26N 59°43' E 019°04'0 0.0
2017-Jul-24 07:58N 59°43' E 019°04'0 0.0
2017-Jul-24 07:30N 59°43' E 019°04'0 0.0
2017-Jul-24 06:59N 59°43' E 019°04'0 0.0
2017-Jul-24 06:30N 59°43' E 019°04'0 0.0
2017-Jul-24 05:58N 59°43' E 019°04'0 0.0
2017-Jul-24 05:28N 59°43' E 019°04'0 0.0
2017-Jul-24 04:58N 59°43' E 019°04'0 0.0
2017-Jul-24 04:30N 59°43' E 019°04'3 5.6
2017-Jul-24 04:01N 59°44' E 019°09'816.1
2017-Jul-24 03:31N 59°46' E 019°25'815.3
2017-Jul-24 03:00N 59°44' E 019°39'815.7
2017-Jul-24 02:30N 59°42' E 019°54'510.9
2017-Jul-24 02:00N 59°39' E 020°03'611.6
2017-Jul-24 01:30N 59°36' E 020°13'815.2
2017-Jul-24 01:00N 59°35' E 020°28'816.1
2017-Jul-24 00:30N 59°33' E 020°43'714.6
2017-Jul-24 00:00N 59°31' E 020°57'815.5
2017-Jul-23 23:30N 59°29' E 021°12'816.9
2017-Jul-23 23:01N 59°27' E 021°28'714.3
2017-Jul-23 22:30N 59°26' E 021°42'917.5
2017-Jul-23 22:00N 59°24' E 021°59'816.1
2017-Jul-23 21:31N 59°22' E 022°14'815.7
2017-Jul-23 21:00N 59°20' E 022°29'815.6
2017-Jul-23 20:31N 59°20' E 022°44'714.1
2017-Jul-23 20:00N 59°21' E 022°58'815.2
2017-Jul-23 19:30N 59°21' E 023°13'815.2
2017-Jul-23 19:00N 59°22' E 023°28'815.6
2017-Jul-23 18:31N 59°22' E 023°43'815.6
2017-Jul-23 18:01N 59°22' E 023°59'4 7.6
2017-Jul-23 17:30N 59°20' E 024°05'0 0.0
2017-Jul-23 16:55N 59°20' E 024°05'0 0.0
2017-Jul-23 16:29N 59°20' E 024°05'0 0.0
2017-Jul-23 16:00N 59°20' E 024°05'0 0.0
2017-Jul-23 15:30N 59°20' E 024°05'1 1.8
2017-Jul-23 15:00N 59°20' E 024°03'816.6
2017-Jul-23 14:30N 59°23' E 023°48'815.1
2017-Jul-23 14:00N 59°23' E 023°33'815.4
2017-Jul-23 13:30N 59°23' E 023°18'714.6
2017-Jul-23 13:00N 59°23' E 023°04'815.4
2017-Jul-23 12:31N 59°23' E 022°49'815.7
2017-Jul-23 12:00N 59°23' E 022°33'815.7
2017-Jul-23 11:30N 59°25' E 022°18'815.8
2017-Jul-23 11:00N 59°27' E 022°03'815.8
2017-Jul-23 10:30N 59°29' E 021°48'815.7
2017-Jul-23 10:00N 59°32' E 021°34'815.8
2017-Jul-23 09:30N 59°34' E 021°19'815.6
2017-Jul-23 09:00N 59°36' E 021°04'815.6
2017-Jul-23 08:30N 59°38' E 020°49'815.5
2017-Jul-23 08:00N 59°41' E 020°34'815.2
2017-Jul-23 07:30N 59°44' E 020°21'815.5
2017-Jul-23 07:00N 59°45' E 020°06'815.6
2017-Jul-23 06:30N 59°45' E 019°50'815.8
2017-Jul-23 06:01N 59°45' E 019°35'815.2
2017-Jul-23 05:30N 59°45' E 019°20'714.6
2017-Jul-23 05:00N 59°43' E 019°06'1 1.7
2017-Jul-23 04:30N 59°43' E 019°04'2 4.6
2017-Jul-23 04:00N 59°44' E 019°08'815.8
2017-Jul-23 03:30N 59°46' E 019°23'816.0
2017-Jul-23 03:00N 59°45' E 019°39'815.2
2017-Jul-23 02:30N 59°42' E 019°53'611.2
2017-Jul-23 02:01N 59°39' E 020°02'5 9.5
2017-Jul-23 01:30N 59°37' E 020°11'815.4
2017-Jul-23 01:01N 59°35' E 020°26'815.6
2017-Jul-23 00:30N 59°33' E 020°40'815.6
2017-Jul-23 00:00N 59°31' E 020°56'815.7
2017-Jul-22 23:30N 59°30' E 021°11'815.6
2017-Jul-22 23:00N 59°28' E 021°25'815.5
2017-Jul-22 22:30N 59°26' E 021°40'815.5
2017-Jul-22 22:00N 59°24' E 021°55'815.5
2017-Jul-22 21:30N 59°23' E 022°10'816.5
2017-Jul-22 21:00N 59°20' E 022°26'815.4
2017-Jul-22 20:31N 59°20' E 022°41'815.2
2017-Jul-22 20:00N 59°21' E 022°55'816.4
2017-Jul-22 19:30N 59°21' E 023°12'613.1
2017-Jul-22 19:01N 59°22' E 023°24'815.4
2017-Jul-22 18:30N 59°22' E 023°40'815.5
2017-Jul-22 18:01N 59°23' E 023°55'611.6
2017-Jul-22 17:30N 59°20' E 024°05'0 0.1
2017-Jul-22 17:00N 59°20' E 024°05'0 0.0
2017-Jul-22 16:30N 59°20' E 024°05'0 0.0
2017-Jul-22 16:00N 59°20' E 024°05'0 0.0
2017-Jul-22 15:30N 59°20' E 024°05'0 0.0
2017-Jul-22 15:00N 59°20' E 024°05'0 0.0
2017-Jul-22 14:00N 59°20' E 024°05'0 0.0
2017-Jul-22 13:30N 59°20' E 024°05'0 0.0
2017-Jul-22 13:00N 59°20' E 024°05'0 0.0
2017-Jul-22 12:30N 59°20' E 024°05'0 0.0
2017-Jul-22 12:00N 59°20' E 024°05'0 0.0
2017-Jul-22 11:30N 59°20' E 024°05'0 0.0
2017-Jul-22 10:57N 59°20' E 024°05'0 0.0
2017-Jul-22 10:30N 59°20' E 024°05'0 0.0
2017-Jul-22 10:00N 59°20' E 024°05'0 0.0
2017-Jul-22 09:30N 59°20' E 024°05'0 0.0
2017-Jul-22 09:00N 59°20' E 024°05'0 0.0
2017-Jul-22 08:30N 59°20' E 024°05'0 0.0
2017-Jul-22 08:00N 59°20' E 024°05'0 0.0
2017-Jul-22 07:30N 59°20' E 024°05'0 0.0
2017-Jul-22 07:00N 59°20' E 024°05'0 0.0
2017-Jul-22 06:30N 59°20' E 024°05'0 0.0
2017-Jul-22 05:57N 59°20' E 024°05'0 0.0
2017-Jul-22 05:31N 59°20' E 024°05'3 5.4
2017-Jul-22 05:01N 59°21' E 024°00'815.2
2017-Jul-22 04:30N 59°23' E 023°46'816.0
2017-Jul-22 04:00N 59°23' E 023°30'816.0
2017-Jul-22 03:30N 59°23' E 023°14'612.7
2017-Jul-22 03:00N 59°23' E 023°02'510.5
2017-Jul-22 02:30N 59°23' E 022°51'815.9
2017-Jul-22 02:00N 59°23' E 022°36'815.6
2017-Jul-22 01:31N 59°24' E 022°21'815.6
2017-Jul-22 01:00N 59°27' E 022°06'815.6
2017-Jul-22 00:30N 59°29' E 021°51'815.7
2017-Jul-22 00:00N 59°31' E 021°37'815.7
2017-Jul-21 23:31N 59°33' E 021°22'815.8
2017-Jul-21 23:00N 59°36' E 021°07'815.8
2017-Jul-21 22:30N 59°38' E 020°52'815.8
2017-Jul-21 22:00N 59°40' E 020°37'815.3
2017-Jul-21 21:30N 59°44' E 020°24'815.4
2017-Jul-21 21:00N 59°45' E 020°09'815.7
2017-Jul-21 20:30N 59°44' E 019°53'816.2
2017-Jul-21 20:00N 59°45' E 019°37'815.9
2017-Jul-21 19:30N 59°46' E 019°21'815.4
2017-Jul-21 19:00N 59°43' E 019°07'1 2.5
2017-Jul-21 18:29N 59°43' E 019°04'0 0.0
2017-Jul-21 17:59N 59°43' E 019°04'0 0.0
2017-Jul-21 17:29N 59°43' E 019°04'0 0.0
2017-Jul-21 16:59N 59°43' E 019°04'0 0.0
2017-Jul-21 16:29N 59°43' E 019°04'0 0.0
2017-Jul-21 15:59N 59°43' E 019°04'0 0.0
2017-Jul-21 15:29N 59°43' E 019°04'0 0.0
2017-Jul-21 14:59N 59°43' E 019°04'0 0.0
2017-Jul-21 14:29N 59°43' E 019°04'0 0.0
2017-Jul-21 13:59N 59°43' E 019°04'0 0.0
2017-Jul-21 13:29N 59°43' E 019°04'0 0.0
2017-Jul-21 12:59N 59°43' E 019°04'0 0.0
2017-Jul-21 12:29N 59°43' E 019°04'0 0.0
2017-Jul-21 11:59N 59°43' E 019°04'0 0.0
2017-Jul-21 11:29N 59°43' E 019°04'0 0.0
2017-Jul-21 10:59N 59°43' E 019°04'0 0.0
2017-Jul-21 10:29N 59°43' E 019°04'0 0.0
2017-Jul-21 09:59N 59°43' E 019°04'0 0.0
2017-Jul-21 09:29N 59°43' E 019°04'0 0.0
2017-Jul-21 08:59N 59°43' E 019°04'0 0.0
2017-Jul-21 08:29N 59°43' E 019°04'0 0.0
2017-Jul-21 07:59N 59°43' E 019°04'0 0.0
2017-Jul-21 07:29N 59°43' E 019°04'0 0.0
2017-Jul-21 06:59N 59°43' E 019°04'0 0.0
2017-Jul-21 06:29N 59°43' E 019°04'0 0.0
2017-Jul-21 05:59N 59°43' E 019°04'0 0.0
2017-Jul-21 05:29N 59°43' E 019°04'0 0.0
2017-Jul-21 04:59N 59°43' E 019°04'0 0.0
2017-Jul-21 04:31N 59°43' E 019°04'3 5.4
2017-Jul-21 04:00N 59°44' E 019°09'815.9
2017-Jul-21 03:30N 59°46' E 019°24'815.8
2017-Jul-21 03:00N 59°45' E 019°40'815.2
2017-Jul-21 02:30N 59°42' E 019°54'510.3
2017-Jul-21 02:00N 59°39' E 020°02'5 9.4
2017-Jul-21 01:30N 59°37' E 020°10'714.7
2017-Jul-21 01:00N 59°35' E 020°24'815.8
2017-Jul-21 00:30N 59°33' E 020°40'815.7
2017-Jul-21 00:00N 59°31' E 020°55'815.8
2017-Jul-20 23:30N 59°30' E 021°10'815.7
2017-Jul-20 23:00N 59°28' E 021°25'815.7
2017-Jul-20 22:31N 59°26' E 021°40'815.8
2017-Jul-20 22:00N 59°24' E 021°55'815.7
2017-Jul-20 21:30N 59°22' E 022°10'917.4
2017-Jul-20 21:00N 59°20' E 022°27'918.0
2017-Jul-20 20:30N 59°20' E 022°44'612.4
2017-Jul-20 20:00N 59°21' E 022°57'815.9
2017-Jul-20 19:30N 59°21' E 023°12'713.7
2017-Jul-20 19:00N 59°22' E 023°25'815.2
2017-Jul-20 18:30N 59°22' E 023°40'815.2
2017-Jul-20 18:00N 59°23' E 023°55'611.0
2017-Jul-20 17:30N 59°20' E 024°05'0 0.0
2017-Jul-20 16:58N 59°20' E 024°05'0 0.0
2017-Jul-20 16:29N 59°20' E 024°05'0 0.0
2017-Jul-20 15:58N 59°20' E 024°05'0 0.0
2017-Jul-20 15:28N 59°20' E 024°05'0 0.0
2017-Jul-20 14:55N 59°20' E 024°05'0 0.0
2017-Jul-20 13:58N 59°20' E 024°05'0 0.0
2017-Jul-20 13:28N 59°20' E 024°05'0 0.0
2017-Jul-20 12:58N 59°20' E 024°05'0 0.0
2017-Jul-20 12:28N 59°20' E 024°05'0 0.0
2017-Jul-20 11:58N 59°20' E 024°05'0 0.0
2017-Jul-20 11:28N 59°20' E 024°05'0 0.0
2017-Jul-20 10:58N 59°20' E 024°05'0 0.0
2017-Jul-20 10:28N 59°20' E 024°05'0 0.0
2017-Jul-20 09:58N 59°20' E 024°05'0 0.0
2017-Jul-20 09:11N 59°20' E 024°05'0 0.0
2017-Jul-20 08:53N 59°20' E 024°05'0 0.0
2017-Jul-20 06:13N 59°20' E 024°05'0 0.0
2017-Jul-20 05:49N 59°20' E 024°05'0 0.1
2017-Jul-20 05:30N 59°20' E 024°05'4 8.0
2017-Jul-20 05:00N 59°22' E 023°58'816.0
2017-Jul-20 04:30N 59°23' E 023°43'816.1
2017-Jul-20 04:00N 59°23' E 023°27'815.9
2017-Jul-20 03:30N 59°23' E 023°11'511.0
2017-Jul-20 03:00N 59°23' E 023°00'713.9
2017-Jul-20 02:31N 59°23' E 022°47'815.9
2017-Jul-20 02:00N 59°23' E 022°31'815.5
2017-Jul-20 01:30N 59°25' E 022°16'815.7
2017-Jul-20 01:00N 59°27' E 022°01'815.7
2017-Jul-20 00:31N 59°30' E 021°47'815.7
2017-Jul-20 00:00N 59°32' E 021°32'815.7
2017-Jul-19 23:31N 59°34' E 021°17'815.8
2017-Jul-19 23:01N 59°36' E 021°02'815.8
2017-Jul-19 22:31N 59°38' E 020°47'815.8
2017-Jul-19 22:01N 59°41' E 020°32'815.4
2017-Jul-19 21:31N 59°45' E 020°19'815.9
2017-Jul-19 21:01N 59°45' E 020°03'816.3
2017-Jul-19 20:30N 59°45' E 019°47'816.3
2017-Jul-19 20:00N 59°46' E 019°31'816.4
2017-Jul-19 19:31N 59°45' E 019°15'611.1
2017-Jul-19 19:01N 59°43' E 019°04'0 0.0
2017-Jul-19 18:30N 59°43' E 019°04'0 0.0
2017-Jul-19 18:00N 59°43' E 019°04'0 0.0
2017-Jul-19 17:30N 59°43' E 019°04'0 0.0
2017-Jul-19 17:00N 59°43' E 019°04'0 0.0
2017-Jul-19 16:30N 59°43' E 019°04'0 0.0
2017-Jul-19 16:00N 59°43' E 019°04'0 0.0
2017-Jul-19 15:30N 59°43' E 019°04'0 0.0
2017-Jul-19 15:00N 59°43' E 019°04'0 0.0
2017-Jul-19 14:30N 59°43' E 019°04'0 0.0
2017-Jul-19 14:00N 59°43' E 019°04'0 0.0
2017-Jul-19 13:30N 59°43' E 019°04'0 0.0
2017-Jul-19 13:00N 59°43' E 019°04'0 0.0
2017-Jul-19 12:30N 59°43' E 019°04'0 0.0
2017-Jul-19 12:00N 59°43' E 019°04'0 0.0
2017-Jul-19 11:30N 59°43' E 019°04'0 0.0
2017-Jul-19 11:00N 59°43' E 019°04'0 0.0
2017-Jul-19 10:30N 59°43' E 019°04'0 0.0
2017-Jul-19 10:00N 59°43' E 019°04'0 0.0
2017-Jul-19 09:30N 59°43' E 019°04'0 0.0
2017-Jul-19 09:00N 59°43' E 019°04'0 0.0
2017-Jul-19 08:30N 59°43' E 019°04'0 0.0
2017-Jul-19 08:00N 59°43' E 019°04'0 0.0
2017-Jul-19 07:30N 59°43' E 019°04'0 0.0
2017-Jul-19 07:00N 59°43' E 019°04'0 0.0
2017-Jul-19 06:30N 59°43' E 019°04'0 0.0
2017-Jul-19 06:00N 59°43' E 019°04'0 0.0
2017-Jul-19 05:30N 59°43' E 019°04'0 0.0
2017-Jul-19 05:00N 59°43' E 019°04'0 0.0
2017-Jul-19 04:31N 59°43' E 019°04'2 4.8
2017-Jul-19 04:00N 59°44' E 019°09'815.3
2017-Jul-19 03:30N 59°46' E 019°23'714.7
2017-Jul-19 03:00N 59°45' E 019°37'815.0
2017-Jul-19 02:30N 59°42' E 019°52'815.2
2017-Jul-19 02:00N 59°38' E 020°04'815.2
2017-Jul-19 01:31N 59°36' E 020°18'815.0
2017-Jul-19 01:00N 59°34' E 020°33'715.0
2017-Jul-19 00:31N 59°32' E 020°47'714.9
2017-Jul-19 00:00N 59°31' E 021°01'815.1
2017-Jul-18 23:31N 59°29' E 021°16'815.1
2017-Jul-18 23:00N 59°27' E 021°30'815.2
2017-Jul-18 22:30N 59°25' E 021°45'815.2
2017-Jul-18 22:01N 59°24' E 021°59'815.1
2017-Jul-18 21:30N 59°22' E 022°14'815.1
2017-Jul-18 21:01N 59°20' E 022°28'815.8
2017-Jul-18 20:31N 59°20' E 022°44'714.6
2017-Jul-18 20:00N 59°21' E 022°58'816.4
2017-Jul-18 19:30N 59°21' E 023°14'713.8
2017-Jul-18 19:00N 59°22' E 023°28'714.9
2017-Jul-18 18:31N 59°22' E 023°42'714.6
2017-Jul-18 18:00N 59°23' E 023°57'510.1
2017-Jul-18 17:30N 59°20' E 024°05'0 0.0
2017-Jul-18 16:59N 59°20' E 024°05'0 0.0
2017-Jul-18 16:29N 59°20' E 024°05'0 0.0
2017-Jul-18 15:59N 59°20' E 024°05'0 0.0
2017-Jul-18 15:29N 59°20' E 024°05'0 0.0
2017-Jul-18 14:59N 59°20' E 024°05'0 0.0
2017-Jul-18 13:59N 59°20' E 024°05'0 0.0
2017-Jul-18 13:29N 59°20' E 024°05'0 0.0
2017-Jul-18 12:59N 59°20' E 024°05'0 0.0
2017-Jul-18 12:29N 59°20' E 024°05'0 0.0
2017-Jul-18 11:59N 59°20' E 024°05'0 0.0
2017-Jul-18 11:29N 59°20' E 024°05'0 0.0
2017-Jul-18 10:59N 59°20' E 024°05'0 0.0
2017-Jul-18 10:29N 59°20' E 024°05'0 0.0
2017-Jul-18 09:59N 59°20' E 024°05'0 0.0
2017-Jul-18 09:29N 59°20' E 024°05'0 0.0
2017-Jul-18 08:59N 59°20' E 024°05'0 0.0
2017-Jul-18 08:29N 59°20' E 024°05'0 0.0
2017-Jul-18 07:59N 59°20' E 024°05'0 0.0
2017-Jul-18 07:26N 59°20' E 024°05'0 0.0
2017-Jul-18 06:56N 59°20' E 024°05'0 0.0
2017-Jul-18 06:29N 59°20' E 024°05'0 0.0
2017-Jul-18 05:59N 59°20' E 024°05'0 0.0
2017-Jul-18 05:30N 59°20' E 024°05'3 5.4
2017-Jul-18 05:00N 59°21' E 024°01'713.4
2017-Jul-18 04:30N 59°23' E 023°48'714.8
2017-Jul-18 04:00N 59°23' E 023°33'815.0
2017-Jul-18 03:31N 59°23' E 023°19'815.0
2017-Jul-18 03:00N 59°23' E 023°04'815.4
2017-Jul-18 02:30N 59°23' E 022°49'815.4
2017-Jul-18 02:00N 59°23' E 022°34'815.0
2017-Jul-18 01:30N 59°25' E 022°19'714.3
2017-Jul-18 01:00N 59°27' E 022°06'714.5
2017-Jul-18 00:30N 59°29' E 021°52'714.5
2017-Jul-18 00:01N 59°31' E 021°38'714.6
2017-Jul-17 23:31N 59°33' E 021°24'714.7
2017-Jul-17 23:00N 59°35' E 021°10'714.7
2017-Jul-17 22:30N 59°37' E 020°57'714.8
2017-Jul-17 22:00N 59°39' E 020°43'714.2
2017-Jul-17 21:30N 59°42' E 020°30'714.5
2017-Jul-17 21:01N 59°45' E 020°16'816.6
2017-Jul-17 20:31N 59°45' E 019°60'816.1
2017-Jul-17 20:00N 59°45' E 019°44'815.3
2017-Jul-17 19:30N 59°46' E 019°29'815.6
2017-Jul-17 19:01N 59°44' E 019°13'5 9.0
2017-Jul-17 18:28N 59°43' E 019°04'0 0.0
2017-Jul-17 17:58N 59°43' E 019°04'0 0.0
2017-Jul-17 17:28N 59°43' E 019°04'0 0.0
2017-Jul-17 16:58N 59°43' E 019°04'0 0.0
2017-Jul-17 16:28N 59°43' E 019°04'0 0.0
2017-Jul-17 15:58N 59°43' E 019°04'0 0.0
2017-Jul-17 15:28N 59°43' E 019°04'0 0.0
2017-Jul-17 14:58N 59°43' E 019°04'0 0.0
2017-Jul-17 14:28N 59°43' E 019°04'0 0.0
2017-Jul-17 13:58N 59°43' E 019°04'0 0.0
2017-Jul-17 13:22N 59°43' E 019°04'0 0.0
2017-Jul-17 12:58N 59°43' E 019°04'0 0.0
2017-Jul-17 12:28N 59°43' E 019°04'0 0.0
2017-Jul-17 11:58N 59°43' E 019°04'0 0.0
2017-Jul-17 11:28N 59°43' E 019°04'0 0.0
2017-Jul-17 10:58N 59°43' E 019°04'0 0.0
2017-Jul-17 10:28N 59°43' E 019°04'0 0.0
2017-Jul-17 09:58N 59°43' E 019°04'0 0.0
2017-Jul-17 09:28N 59°43' E 019°04'0 0.0
2017-Jul-17 08:58N 59°43' E 019°04'0 0.0
2017-Jul-17 08:28N 59°43' E 019°04'0 0.0
2017-Jul-17 07:58N 59°43' E 019°04'0 0.0
2017-Jul-17 07:28N 59°43' E 019°04'0 0.0
2017-Jul-17 06:58N 59°43' E 019°04'0 0.0
2017-Jul-17 06:28N 59°43' E 019°04'0 0.0
2017-Jul-17 05:58N 59°43' E 019°04'0 0.0
2017-Jul-17 05:28N 59°43' E 019°04'0 0.0
2017-Jul-17 04:58N 59°43' E 019°04'0 0.0
2017-Jul-17 04:28N 59°43' E 019°04'2 3.6
2017-Jul-17 04:01N 59°43' E 019°07'713.9
2017-Jul-17 03:31N 59°46' E 019°20'713.8
2017-Jul-17 03:01N 59°47' E 019°34'714.0
2017-Jul-17 02:31N 59°47' E 019°48'714.1
2017-Jul-17 02:01N 59°46' E 020°02'714.3
2017-Jul-17 01:31N 59°46' E 020°16'714.3
2017-Jul-17 01:01N 59°43' E 020°29'714.5
2017-Jul-17 00:30N 59°40' E 020°42'815.2
2017-Jul-17 00:00N 59°39' E 020°57'815.5
2017-Jul-16 23:31N 59°38' E 021°12'815.4
2017-Jul-16 23:00N 59°36' E 021°27'815.5
2017-Jul-16 22:30N 59°35' E 021°42'815.3
2017-Jul-16 22:00N 59°34' E 021°57'815.2
2017-Jul-16 21:31N 59°33' E 022°12'816.2
2017-Jul-16 21:00N 59°32' E 022°28'917.4
2017-Jul-16 20:30N 59°31' E 022°45'714.9
2017-Jul-16 20:00N 59°30' E 022°59'714.3
2017-Jul-16 19:30N 59°28' E 023°13'815.8
2017-Jul-16 19:01N 59°26' E 023°28'815.6
2017-Jul-16 18:31N 59°24' E 023°43'815.8
2017-Jul-16 18:01N 59°23' E 023°58'4 8.9
2017-Jul-16 17:30N 59°20' E 024°05'0 0.0
2017-Jul-16 16:59N 59°20' E 024°05'0 0.0
2017-Jul-16 16:29N 59°20' E 024°05'0 0.0
2017-Jul-16 15:59N 59°20' E 024°05'0 0.0
2017-Jul-16 15:30N 59°20' E 024°05'2 4.3
2017-Jul-16 15:00N 59°21' E 024°01'611.3
2017-Jul-16 14:31N 59°23' E 023°51'816.0
2017-Jul-16 14:01N 59°23' E 023°35'816.1
2017-Jul-16 13:31N 59°23' E 023°19'816.1
2017-Jul-16 13:01N 59°23' E 023°04'816.2
2017-Jul-16 12:31N 59°24' E 022°48'816.0
2017-Jul-16 12:01N 59°24' E 022°32'815.7
2017-Jul-16 11:31N 59°25' E 022°17'917.9
2017-Jul-16 11:00N 59°27' E 022°00'713.8
2017-Jul-16 10:31N 59°30' E 021°47'815.9
2017-Jul-16 10:01N 59°32' E 021°32'815.8
2017-Jul-16 09:31N 59°34' E 021°17'815.9
2017-Jul-16 09:01N 59°36' E 021°02'816.2
2017-Jul-16 08:30N 59°39' E 020°47'918.0
2017-Jul-16 08:00N 59°42' E 020°30'815.4
2017-Jul-16 07:31N 59°45' E 020°16'816.0
2017-Jul-16 07:00N 59°45' E 020°00'815.4
2017-Jul-16 06:30N 59°44' E 019°45'816.1
2017-Jul-16 06:00N 59°46' E 019°29'816.2
2017-Jul-16 05:30N 59°44' E 019°13'5 9.2
2017-Jul-16 04:59N 59°43' E 019°04'0 0.0
2017-Jul-16 04:30N 59°43' E 019°04'3 7.0
2017-Jul-16 04:00N 59°44' E 019°11'713.9
2017-Jul-16 03:30N 59°46' E 019°24'611.9
2017-Jul-16 03:00N 59°45' E 019°36'713.8
2017-Jul-16 02:31N 59°43' E 019°49'816.2
2017-Jul-16 02:00N 59°39' E 020°02'714.0
2017-Jul-16 01:30N 59°36' E 020°15'713.8
2017-Jul-16 01:00N 59°35' E 020°28'816.9
2017-Jul-16 00:30N 59°33' E 020°45'815.0
2017-Jul-16 00:00N 59°31' E 020°59'714.7
2017-Jul-15 23:31N 59°29' E 021°13'714.9
2017-Jul-15 23:00N 59°28' E 021°27'815.6
2017-Jul-15 22:31N 59°26' E 021°42'815.7
2017-Jul-15 22:01N 59°24' E 021°57'815.1
2017-Jul-15 21:30N 59°22' E 022°12'918.0
2017-Jul-15 21:00N 59°21' E 022°29'713.0
2017-Jul-15 20:31N 59°20' E 022°42'815.3
2017-Jul-15 20:00N 59°21' E 022°57'815.6
2017-Jul-15 19:30N 59°21' E 023°12'815.5
2017-Jul-15 19:00N 59°22' E 023°27'815.5
2017-Jul-15 18:31N 59°22' E 023°42'815.4
2017-Jul-15 18:01N 59°22' E 023°57'5 9.0
2017-Jul-15 17:30N 59°20' E 024°05'0 0.0
2017-Jul-15 17:00N 59°20' E 024°05'0 0.0
2017-Jul-15 16:30N 59°20' E 024°05'0 0.0
2017-Jul-15 16:00N 59°20' E 024°05'0 0.0
2017-Jul-15 15:30N 59°20' E 024°05'0 0.0
2017-Jul-15 15:00N 59°20' E 024°05'0 0.0
2017-Jul-15 14:00N 59°20' E 024°05'0 0.0
2017-Jul-15 13:30N 59°20' E 024°05'0 0.0
2017-Jul-15 13:00N 59°20' E 024°05'0 0.0
2017-Jul-15 12:30N 59°20' E 024°05'0 0.0
2017-Jul-15 12:00N 59°20' E 024°05'0 0.0
2017-Jul-15 11:30N 59°20' E 024°05'0 0.0
2017-Jul-15 11:00N 59°20' E 024°05'0 0.0
2017-Jul-15 10:30N 59°20' E 024°05'0 0.0
2017-Jul-15 10:00N 59°20' E 024°05'0 0.0
2017-Jul-15 09:30N 59°20' E 024°05'0 0.0
2017-Jul-15 09:00N 59°20' E 024°05'0 0.0
2017-Jul-15 08:30N 59°20' E 024°05'0 0.0
2017-Jul-15 07:54N 59°20' E 024°05'0 0.0
2017-Jul-15 07:27N 59°20' E 024°05'0 0.0
2017-Jul-15 07:00N 59°20' E 024°05'0 0.0
2017-Jul-15 06:30N 59°20' E 024°05'0 0.0
2017-Jul-15 05:57N 59°20' E 024°05'0 0.0
2017-Jul-15 05:30N 59°20' E 024°05'3 6.6
2017-Jul-15 05:00N 59°22' E 023°60'  

Dump ship's entire track history